createdAt,value
2023-05-24T00:01:59.649Z,0
2023-05-24T00:11:59.940Z,0
2023-05-24T00:21:59.970Z,0
2023-05-24T00:31:59.764Z,0
2023-05-24T00:42:00.398Z,0
2023-05-24T00:51:59.708Z,0
2023-05-24T01:01:59.750Z,0
2023-05-24T01:11:59.722Z,0
2023-05-24T01:21:59.755Z,0
2023-05-24T01:31:59.784Z,0
2023-05-24T01:41:59.660Z,0
2023-05-24T01:52:01.153Z,0
2023-05-24T02:02:01.010Z,0
2023-05-24T02:12:00.999Z,0
2023-05-24T02:21:59.783Z,0
2023-05-24T02:32:01.035Z,0
2023-05-24T02:42:01.105Z,0
2023-05-24T02:52:01.437Z,0
2023-05-24T03:02:01.127Z,0
2023-05-24T03:11:59.805Z,0
2023-05-24T03:21:59.680Z,0
2023-05-24T03:32:00.394Z,0
2023-05-24T03:42:00.054Z,0
2023-05-24T03:52:00.298Z,0
2023-05-24T04:02:00.663Z,0
2023-05-24T04:11:59.903Z,0
2023-05-24T04:21:59.976Z,0
2023-05-24T04:31:59.792Z,0
2023-05-24T04:41:59.942Z,0
2023-05-24T04:51:59.870Z,0
2023-05-24T05:01:59.868Z,0
2023-05-24T05:12:00.359Z,0
2023-05-24T05:21:59.988Z,0
2023-05-24T05:31:59.792Z,0
2023-05-24T05:41:59.853Z,0
2023-05-24T05:51:59.908Z,0
2023-05-24T06:01:59.917Z,0
2023-05-24T06:11:59.827Z,0
2023-05-24T06:22:00.372Z,0
2023-05-24T06:32:05.040Z,0
2023-05-24T06:42:02.451Z,0
2023-05-24T06:52:03.721Z,0
2023-05-24T07:02:04.218Z,0
2023-05-24T07:12:02.442Z,0
2023-05-24T07:22:07.226Z,0
2023-05-24T07:32:04.434Z,0
2023-05-24T07:42:03.493Z,0
2023-05-24T07:52:03.341Z,0
2023-05-24T08:02:03.225Z,0
2023-05-24T08:12:03.293Z,0
2023-05-24T08:22:05.303Z,0
2023-05-24T08:32:03.900Z,0
2023-05-24T08:52:03.952Z,0
2023-05-24T09:02:03.857Z,0
2023-05-24T09:12:03.664Z,0
2023-05-24T09:22:03.814Z,0
2023-05-24T09:32:03.876Z,0
2023-05-24T09:42:03.690Z,0
2023-05-24T09:52:03.784Z,0
2023-05-24T10:02:03.981Z,0
2023-05-24T10:12:05.806Z,0
2023-05-24T10:22:04.083Z,0
2023-05-24T10:32:04.125Z,0
2023-05-24T10:42:04.829Z,0
2023-05-24T10:52:07.076Z,0
2023-05-24T11:02:06.045Z,0.0002
2023-05-24T11:12:06.641Z,0.0004
2023-05-24T11:22:05.985Z,0.0007
2023-05-24T11:32:06.166Z,0.0010
2023-05-24T11:42:06.767Z,0.0013
2023-05-24T11:52:06.317Z,0.0015
2023-05-24T12:02:06.096Z,0.0018
2023-05-24T12:12:06.235Z,0.0021
2023-05-24T12:22:06.288Z,0.0024
2023-05-24T12:32:06.034Z,0.0027
2023-05-24T12:42:05.906Z,0.0029
2023-05-24T12:52:07.049Z,0.0032
2023-05-24T13:02:07.805Z,0.0035
2023-05-24T13:12:07.765Z,0.0038
2023-05-24T13:22:08.486Z,0.0040
2023-05-24T13:32:07.514Z,0.0043
2023-05-24T13:42:08.152Z,0.0046
2023-05-24T13:52:07.720Z,0.0049
2023-05-24T14:02:07.796Z,0.0052
2023-05-24T14:12:07.648Z,0.0054
2023-05-24T14:22:10.238Z,0.0057
2023-05-24T14:32:08.123Z,0.0060
2023-05-24T14:42:08.341Z,0.0063
2023-05-24T14:52:07.714Z,0.0065
2023-05-24T15:02:07.987Z,0.0068
2023-05-24T15:12:07.802Z,0.0071
2023-05-24T15:22:07.698Z,0.0074
2023-05-24T15:32:07.899Z,0.0077
2023-05-24T15:42:07.749Z,0.0079
2023-05-24T15:52:08.141Z,0.0082
2023-05-24T16:02:08.251Z,0.0085
2023-05-24T16:12:07.720Z,0.0088
2023-05-24T16:22:07.734Z,0.0090
2023-05-24T16:32:08.175Z,0.0093
2023-05-24T16:42:07.829Z,0.0096
2023-05-24T16:52:08.243Z,0.0099
2023-05-24T17:02:08.210Z,0.0102
2023-05-24T17:12:08.638Z,0.0104
2023-05-24T17:22:07.912Z,0.0107
2023-05-24T17:32:07.785Z,0.0110
2023-05-24T17:42:08.010Z,0.0113
2023-05-24T17:52:07.826Z,0.0115
2023-05-24T18:02:07.836Z,0.0118
2023-05-24T18:12:07.895Z,0.0121
2023-05-24T18:22:07.791Z,0.0124
2023-05-24T18:32:07.996Z,0.0127
2023-05-24T18:42:08.201Z,0.0129
2023-05-24T18:52:07.776Z,0.0132
2023-05-24T19:02:08.308Z,0.0135
2023-05-24T19:12:07.866Z,0.0138
2023-05-24T19:22:08.000Z,0.0140
2023-05-24T19:32:08.451Z,0.0143
2023-05-24T19:42:08.663Z,0.0146
2023-05-24T19:52:08.290Z,0.0149
2023-05-24T20:02:08.601Z,0.0152
2023-05-24T20:12:07.895Z,0.0154
2023-05-24T20:22:08.362Z,0.0157
2023-05-24T20:32:08.070Z,0.0160
2023-05-24T20:42:08.002Z,0.0163
2023-05-24T20:52:08.055Z,0.0165
2023-05-24T21:02:08.199Z,0.0168
2023-05-24T21:12:07.973Z,0.0171
2023-05-24T21:22:08.099Z,0.0174
2023-05-24T21:32:07.915Z,0.0177
2023-05-24T21:42:08.234Z,0.0179
2023-05-24T21:52:08.436Z,0.0182
2023-05-24T22:02:08.039Z,0
2023-05-24T22:12:08.095Z,0
2023-05-24T22:22:08.145Z,0
2023-05-24T22:32:08.181Z,0
2023-05-24T22:42:08.242Z,0
2023-05-24T22:52:09.081Z,0
2023-05-24T23:02:08.612Z,0
2023-05-24T23:12:08.799Z,0
2023-05-24T23:22:10.423Z,0
2023-05-24T23:32:09.248Z,0
2023-05-24T23:42:10.992Z,0
2023-05-24T23:52:08.758Z,0
